Terminal Aerodrome Forecast
Issued by NWS

Home | Current Version | Previous Version | Text Only | Print | Product List | Glossary On
Versions: 1 2 3 4 5 6 7 8 9 10 11 12 13 14 15 16 17 18 19 20 21 22
000
FTUS43 KDVN 230520
TAFBRL
TAF
KBRL 230520Z 2306/2406 21008KT P6SM SCT080 BKN120
     FM231500 29005KT P6SM SCT030 BKN040 PROB30 2316/2322 5SM SHRA
      BR OVC025
     FM240000 30005KT 6SM -RA OVC035=

USA.gov is the U.S. government's official web portal to all federal, state and local government web resources and services.